sensor_id;sensor_type;location;lat;lon;timestamp;P1;durP1;ratioP1;P2;durP2;ratioP2
39370;SDS011;25099;51.946;4.838;2022-11-21T00:01:58;43.88;;;27.25;;
39370;SDS011;25099;51.946;4.838;2022-11-21T00:04:24;50.10;;;26.20;;
39370;SDS011;25099;51.946;4.838;2022-11-21T00:06:49;39.22;;;24.77;;
39370;SDS011;25099;51.946;4.838;2022-11-21T00:09:16;46.17;;;25.73;;
39370;SDS011;25099;51.946;4.838;2022-11-21T00:11:42;51.60;;;27.42;;
39370;SDS011;25099;51.946;4.838;2022-11-21T00:14:07;58.15;;;28.90;;
39370;SDS011;25099;51.946;4.838;2022-11-21T00:16:33;51.28;;;28.48;;
39370;SDS011;25099;51.946;4.838;2022-11-21T00:18:58;51.78;;;28.15;;
39370;SDS011;25099;51.946;4.838;2022-11-21T00:21:24;51.45;;;27.45;;
39370;SDS011;25099;51.946;4.838;2022-11-21T00:23:50;45.35;;;25.48;;
39370;SDS011;25099;51.946;4.838;2022-11-21T00:26:16;46.33;;;25.67;;
39370;SDS011;25099;51.946;4.838;2022-11-21T00:28:42;49.00;;;26.45;;
39370;SDS011;25099;51.946;4.838;2022-11-21T00:31:08;52.60;;;29.27;;
39370;SDS011;25099;51.946;4.838;2022-11-21T00:33:42;48.10;;;26.65;;
39370;SDS011;25099;51.946;4.838;2022-11-21T00:36:07;57.08;;;28.33;;
39370;SDS011;25099;51.946;4.838;2022-11-21T00:38:33;52.47;;;28.50;;
39370;SDS011;25099;51.946;4.838;2022-11-21T00:40:59;48.13;;;28.02;;
39370;SDS011;25099;51.946;4.838;2022-11-21T00:43:25;53.67;;;28.73;;
39370;SDS011;25099;51.946;4.838;2022-11-21T00:45:50;59.20;;;29.92;;
39370;SDS011;25099;51.946;4.838;2022-11-21T00:48:16;56.05;;;30.88;;
39370;SDS011;25099;51.946;4.838;2022-11-21T00:50:41;57.85;;;30.08;;
39370;SDS011;25099;51.946;4.838;2022-11-21T00:53:07;59.08;;;30.95;;
39370;SDS011;25099;51.946;4.838;2022-11-21T00:55:33;62.38;;;32.60;;
39370;SDS011;25099;51.946;4.838;2022-11-21T00:58:00;60.85;;;31.98;;
39370;SDS011;25099;51.946;4.838;2022-11-21T01:00:26;57.33;;;30.85;;
39370;SDS011;25099;51.946;4.838;2022-11-21T01:02:51;64.07;;;33.17;;
39370;SDS011;25099;51.946;4.838;2022-11-21T01:05:17;61.65;;;31.15;;
39370;SDS011;25099;51.946;4.838;2022-11-21T01:07:42;61.85;;;31.73;;
39370;SDS011;25099;51.946;4.838;2022-11-21T01:10:11;62.83;;;31.30;;
39370;SDS011;25099;51.946;4.838;2022-11-21T01:12:36;62.13;;;31.38;;
39370;SDS011;25099;51.946;4.838;2022-11-21T01:15:02;69.20;;;32.83;;
39370;SDS011;25099;51.946;4.838;2022-11-21T01:17:30;73.07;;;34.75;;
39370;SDS011;25099;51.946;4.838;2022-11-21T01:19:56;68.78;;;32.72;;
39370;SDS011;25099;51.946;4.838;2022-11-21T01:22:22;68.85;;;32.55;;
39370;SDS011;25099;51.946;4.838;2022-11-21T01:24:47;63.40;;;32.10;;
39370;SDS011;25099;51.946;4.838;2022-11-21T01:27:13;71.95;;;31.55;;
39370;SDS011;25099;51.946;4.838;2022-11-21T01:29:38;60.17;;;30.05;;
39370;SDS011;25099;51.946;4.838;2022-11-21T01:32:04;62.38;;;31.70;;
39370;SDS011;25099;51.946;4.838;2022-11-21T01:34:30;53.90;;;29.08;;
39370;SDS011;25099;51.946;4.838;2022-11-21T01:36:55;61.03;;;31.98;;
39370;SDS011;25099;51.946;4.838;2022-11-21T01:39:26;55.63;;;27.75;;
39370;SDS011;25099;51.946;4.838;2022-11-21T01:41:52;70.53;;;32.63;;
39370;SDS011;25099;51.946;4.838;2022-11-21T01:44:21;59.95;;;30.08;;
39370;SDS011;25099;51.946;4.838;2022-11-21T01:46:51;70.45;;;33.58;;
39370;SDS011;25099;51.946;4.838;2022-11-21T01:49:24;75.75;;;34.60;;
39370;SDS011;25099;51.946;4.838;2022-11-21T01:51:54;94.00;;;38.13;;
39370;SDS011;25099;51.946;4.838;2022-11-21T01:54:42;71.22;;;32.55;;
39370;SDS011;25099;51.946;4.838;2022-11-21T01:57:20;80.72;;;34.45;;
39370;SDS011;25099;51.946;4.838;2022-11-21T02:00:05;69.88;;;32.95;;
39370;SDS011;25099;51.946;4.838;2022-11-21T02:02:42;67.93;;;31.17;;
39370;SDS011;25099;51.946;4.838;2022-11-21T02:05:14;69.13;;;32.03;;
39370;SDS011;25099;51.946;4.838;2022-11-21T02:07:43;67.40;;;32.58;;
39370;SDS011;25099;51.946;4.838;2022-11-21T02:10:11;71.05;;;32.20;;
39370;SDS011;25099;51.946;4.838;2022-11-21T02:12:50;69.40;;;31.63;;
39370;SDS011;25099;51.946;4.838;2022-11-21T02:15:18;63.30;;;30.17;;
39370;SDS011;25099;51.946;4.838;2022-11-21T02:17:45;63.15;;;29.92;;
39370;SDS011;25099;51.946;4.838;2022-11-21T02:20:11;72.97;;;33.65;;
39370;SDS011;25099;51.946;4.838;2022-11-21T02:25:34;62.53;;;32.15;;
39370;SDS011;25099;51.946;4.838;2022-11-21T02:28:04;63.08;;;30.95;;
39370;SDS011;25099;51.946;4.838;2022-11-21T02:30:34;110.05;;;31.83;;
39370;SDS011;25099;51.946;4.838;2022-11-21T02:33:02;67.90;;;30.38;;
39370;SDS011;25099;51.946;4.838;2022-11-21T02:35:27;80.82;;;32.00;;
39370;SDS011;25099;51.946;4.838;2022-11-21T02:37:58;53.60;;;28.83;;
39370;SDS011;25099;51.946;4.838;2022-11-21T02:40:27;64.57;;;30.55;;
39370;SDS011;25099;51.946;4.838;2022-11-21T02:43:03;57.95;;;29.38;;
39370;SDS011;25099;51.946;4.838;2022-11-21T02:45:35;63.83;;;30.27;;
39370;SDS011;25099;51.946;4.838;2022-11-21T02:48:03;59.90;;;28.98;;
39370;SDS011;25099;51.946;4.838;2022-11-21T02:50:33;54.35;;;28.00;;
39370;SDS011;25099;51.946;4.838;2022-11-21T02:53:00;57.72;;;29.10;;
39370;SDS011;25099;51.946;4.838;2022-11-21T02:55:27;63.30;;;28.23;;
39370;SDS011;25099;51.946;4.838;2022-11-21T02:57:52;51.45;;;26.77;;
39370;SDS011;25099;51.946;4.838;2022-11-21T03:00:18;75.47;;;29.50;;
39370;SDS011;25099;51.946;4.838;2022-11-21T03:02:44;57.65;;;27.70;;
39370;SDS011;25099;51.946;4.838;2022-11-21T03:05:11;53.55;;;27.58;;
39370;SDS011;25099;51.946;4.838;2022-11-21T03:07:39;60.20;;;29.52;;
39370;SDS011;25099;51.946;4.838;2022-11-21T03:10:05;52.78;;;26.38;;
39370;SDS011;25099;51.946;4.838;2022-11-21T03:12:30;51.95;;;26.45;;
39370;SDS011;25099;51.946;4.838;2022-11-21T03:14:56;52.92;;;28.25;;
39370;SDS011;25099;51.946;4.838;2022-11-21T03:17:25;57.75;;;29.98;;
39370;SDS011;25099;51.946;4.838;2022-11-21T03:19:50;75.68;;;29.88;;
39370;SDS011;25099;51.946;4.838;2022-11-21T03:22:16;110.63;;;31.67;;
39370;SDS011;25099;51.946;4.838;2022-11-21T03:25:02;71.97;;;30.67;;
39370;SDS011;25099;51.946;4.838;2022-11-21T03:27:27;91.38;;;31.08;;
39370;SDS011;25099;51.946;4.838;2022-11-21T03:29:53;82.53;;;31.88;;
39370;SDS011;25099;51.946;4.838;2022-11-21T03:32:18;74.25;;;31.42;;
39370;SDS011;25099;51.946;4.838;2022-11-21T03:34:44;59.42;;;29.70;;
39370;SDS011;25099;51.946;4.838;2022-11-21T03:37:09;62.67;;;29.13;;
39370;SDS011;25099;51.946;4.838;2022-11-21T03:39:35;120.13;;;34.35;;
39370;SDS011;25099;51.946;4.838;2022-11-21T03:42:01;108.82;;;32.85;;
39370;SDS011;25099;51.946;4.838;2022-11-21T03:44:26;60.83;;;28.80;;
39370;SDS011;25099;51.946;4.838;2022-11-21T03:46:53;64.07;;;30.88;;
39370;SDS011;25099;51.946;4.838;2022-11-21T03:49:19;61.00;;;31.40;;
39370;SDS011;25099;51.946;4.838;2022-11-21T03:51:44;61.55;;;31.08;;
39370;SDS011;25099;51.946;4.838;2022-11-21T03:54:10;71.10;;;31.88;;
39370;SDS011;25099;51.946;4.838;2022-11-21T03:56:36;63.20;;;30.25;;
39370;SDS011;25099;51.946;4.838;2022-11-21T03:59:03;64.05;;;30.58;;
39370;SDS011;25099;51.946;4.838;2022-11-21T04:01:29;66.15;;;31.13;;
39370;SDS011;25099;51.946;4.838;2022-11-21T04:03:55;64.65;;;30.92;;
39370;SDS011;25099;51.946;4.838;2022-11-21T04:06:21;61.65;;;31.73;;
39370;SDS011;25099;51.946;4.838;2022-11-21T04:08:48;62.70;;;30.23;;
39370;SDS011;25099;51.946;4.838;2022-11-21T04:11:14;75.85;;;31.40;;
39370;SDS011;25099;51.946;4.838;2022-11-21T04:13:40;74.32;;;32.60;;
39370;SDS011;25099;51.946;4.838;2022-11-21T04:16:06;59.67;;;29.58;;
39370;SDS011;25099;51.946;4.838;2022-11-21T04:18:35;66.50;;;31.13;;
39370;SDS011;25099;51.946;4.838;2022-11-21T04:21:02;88.57;;;30.70;;
39370;SDS011;25099;51.946;4.838;2022-11-21T04:23:29;122.10;;;32.47;;
39370;SDS011;25099;51.946;4.838;2022-11-21T04:25:55;77.45;;;31.13;;
39370;SDS011;25099;51.946;4.838;2022-11-21T04:28:21;63.28;;;29.98;;
39370;SDS011;25099;51.946;4.838;2022-11-21T04:30:47;60.92;;;29.40;;
39370;SDS011;25099;51.946;4.838;2022-11-21T04:33:16;105.03;;;30.98;;
39370;SDS011;25099;51.946;4.838;2022-11-21T04:35:42;120.10;;;31.48;;
39370;SDS011;25099;51.946;4.838;2022-11-21T04:38:08;100.57;;;30.38;;
39370;SDS011;25099;51.946;4.838;2022-11-21T04:40:37;91.03;;;29.98;;
39370;SDS011;25099;51.946;4.838;2022-11-21T04:43:03;74.70;;;30.35;;
39370;SDS011;25099;51.946;4.838;2022-11-21T04:45:29;70.97;;;27.90;;
39370;SDS011;25099;51.946;4.838;2022-11-21T04:47:55;118.22;;;30.50;;
39370;SDS011;25099;51.946;4.838;2022-11-21T04:50:21;143.95;;;30.13;;
39370;SDS011;25099;51.946;4.838;2022-11-21T04:52:50;101.50;;;26.67;;
39370;SDS011;25099;51.946;4.838;2022-11-21T04:55:18;123.55;;;27.67;;
39370;SDS011;25099;51.946;4.838;2022-11-21T04:57:44;133.07;;;27.75;;
39370;SDS011;25099;51.946;4.838;2022-11-21T05:00:10;90.00;;;27.50;;
39370;SDS011;25099;51.946;4.838;2022-11-21T05:02:37;81.13;;;25.95;;
39370;SDS011;25099;51.946;4.838;2022-11-21T05:05:03;75.95;;;27.90;;
39370;SDS011;25099;51.946;4.838;2022-11-21T05:07:29;84.35;;;25.63;;
39370;SDS011;25099;51.946;4.838;2022-11-21T05:09:54;76.40;;;27.40;;
39370;SDS011;25099;51.946;4.838;2022-11-21T05:12:20;154.68;;;32.05;;
39370;SDS011;25099;51.946;4.838;2022-11-21T05:15:04;70.35;;;26.80;;
39370;SDS011;25099;51.946;4.838;2022-11-21T05:17:30;148.50;;;28.83;;
39370;SDS011;25099;51.946;4.838;2022-11-21T05:19:55;81.28;;;27.60;;
39370;SDS011;25099;51.946;4.838;2022-11-21T05:22:21;114.00;;;28.85;;
39370;SDS011;25099;51.946;4.838;2022-11-21T05:24:46;75.82;;;28.98;;
39370;SDS011;25099;51.946;4.838;2022-11-21T05:27:12;112.15;;;30.80;;
39370;SDS011;25099;51.946;4.838;2022-11-21T05:29:37;70.70;;;29.23;;
39370;SDS011;25099;51.946;4.838;2022-11-21T05:32:03;80.10;;;27.27;;
39370;SDS011;25099;51.946;4.838;2022-11-21T05:34:29;65.97;;;28.80;;
39370;SDS011;25099;51.946;4.838;2022-11-21T05:36:54;187.32;;;31.15;;
39370;SDS011;25099;51.946;4.838;2022-11-21T05:39:23;60.10;;;26.70;;
39370;SDS011;25099;51.946;4.838;2022-11-21T05:41:48;57.33;;;27.83;;
39370;SDS011;25099;51.946;4.838;2022-11-21T05:44:14;56.30;;;26.70;;
39370;SDS011;25099;51.946;4.838;2022-11-21T05:46:40;49.30;;;24.38;;
39370;SDS011;25099;51.946;4.838;2022-11-21T05:49:05;47.88;;;23.77;;
39370;SDS011;25099;51.946;4.838;2022-11-21T05:51:32;48.17;;;24.75;;
39370;SDS011;25099;51.946;4.838;2022-11-21T05:53:58;78.93;;;25.30;;
39370;SDS011;25099;51.946;4.838;2022-11-21T05:56:24;106.85;;;25.17;;
39370;SDS011;25099;51.946;4.838;2022-11-21T05:58:49;123.38;;;25.83;;
39370;SDS011;25099;51.946;4.838;2022-11-21T06:01:15;37.83;;;23.45;;
39370;SDS011;25099;51.946;4.838;2022-11-21T06:04:00;41.83;;;22.00;;
39370;SDS011;25099;51.946;4.838;2022-11-21T06:06:26;37.83;;;22.13;;
39370;SDS011;25099;51.946;4.838;2022-11-21T06:08:52;44.85;;;21.95;;
39370;SDS011;25099;51.946;4.838;2022-11-21T06:11:17;61.30;;;23.25;;
39370;SDS011;25099;51.946;4.838;2022-11-21T06:13:43;37.53;;;22.38;;
39370;SDS011;25099;51.946;4.838;2022-11-21T06:16:09;79.00;;;23.40;;
39370;SDS011;25099;51.946;4.838;2022-11-21T06:18:38;47.20;;;20.70;;
39370;SDS011;25099;51.946;4.838;2022-11-21T06:21:05;68.53;;;22.88;;
39370;SDS011;25099;51.946;4.838;2022-11-21T06:23:39;39.65;;;22.40;;
39370;SDS011;25099;51.946;4.838;2022-11-21T06:26:06;58.72;;;24.02;;
39370;SDS011;25099;51.946;4.838;2022-11-21T06:28:36;35.67;;;19.65;;
39370;SDS011;25099;51.946;4.838;2022-11-21T06:31:06;40.17;;;20.65;;
39370;SDS011;25099;51.946;4.838;2022-11-21T06:33:42;46.67;;;22.80;;
39370;SDS011;25099;51.946;4.838;2022-11-21T06:36:09;38.15;;;21.75;;
39370;SDS011;25099;51.946;4.838;2022-11-21T06:38:36;38.42;;;23.35;;
39370;SDS011;25099;51.946;4.838;2022-11-21T06:41:07;45.05;;;22.95;;
39370;SDS011;25099;51.946;4.838;2022-11-21T06:43:37;41.55;;;23.10;;
39370;SDS011;25099;51.946;4.838;2022-11-21T06:46:03;38.00;;;21.70;;
39370;SDS011;25099;51.946;4.838;2022-11-21T06:48:29;35.00;;;22.00;;
39370;SDS011;25099;51.946;4.838;2022-11-21T06:50:55;37.70;;;22.55;;
39370;SDS011;25099;51.946;4.838;2022-11-21T06:53:21;38.45;;;22.17;;
39370;SDS011;25099;51.946;4.838;2022-11-21T06:55:46;34.88;;;21.15;;
39370;SDS011;25099;51.946;4.838;2022-11-21T06:58:12;39.55;;;22.60;;
39370;SDS011;25099;51.946;4.838;2022-11-21T07:00:37;33.55;;;20.52;;
39370;SDS011;25099;51.946;4.838;2022-11-21T07:03:03;35.58;;;21.33;;
39370;SDS011;25099;51.946;4.838;2022-11-21T07:05:28;34.88;;;20.98;;
39370;SDS011;25099;51.946;4.838;2022-11-21T07:07:58;37.10;;;20.95;;
39370;SDS011;25099;51.946;4.838;2022-11-21T07:10:25;37.13;;;22.02;;
39370;SDS011;25099;51.946;4.838;2022-11-21T07:12:51;33.00;;;19.77;;
39370;SDS011;25099;51.946;4.838;2022-11-21T07:15:39;39.35;;;20.65;;
39370;SDS011;25099;51.946;4.838;2022-11-21T07:18:04;32.30;;;18.73;;
39370;SDS011;25099;51.946;4.838;2022-11-21T07:20:30;29.15;;;18.02;;
39370;SDS011;25099;51.946;4.838;2022-11-21T07:22:55;33.47;;;19.83;;
39370;SDS011;25099;51.946;4.838;2022-11-21T07:25:21;37.75;;;18.63;;
39370;SDS011;25099;51.946;4.838;2022-11-21T07:27:47;27.27;;;18.13;;
39370;SDS011;25099;51.946;4.838;2022-11-21T07:30:13;31.23;;;18.60;;
39370;SDS011;25099;51.946;4.838;2022-11-21T07:32:39;32.80;;;19.02;;
39370;SDS011;25099;51.946;4.838;2022-11-21T07:35:04;25.27;;;18.42;;
39370;SDS011;25099;51.946;4.838;2022-11-21T07:37:31;29.77;;;17.48;;
39370;SDS011;25099;51.946;4.838;2022-11-21T07:39:56;25.63;;;16.10;;
39370;SDS011;25099;51.946;4.838;2022-11-21T07:42:22;26.35;;;15.57;;
39370;SDS011;25099;51.946;4.838;2022-11-21T07:44:47;24.17;;;15.80;;
39370;SDS011;25099;51.946;4.838;2022-11-21T07:47:13;26.15;;;15.35;;
39370;SDS011;25099;51.946;4.838;2022-11-21T07:49:38;26.48;;;16.85;;
39370;SDS011;25099;51.946;4.838;2022-11-21T07:52:07;18.67;;;14.25;;
39370;SDS011;25099;51.946;4.838;2022-11-21T07:54:32;21.95;;;15.20;;
39370;SDS011;25099;51.946;4.838;2022-11-21T07:56:58;27.15;;;17.55;;
39370;SDS011;25099;51.946;4.838;2022-11-21T07:59:23;25.67;;;15.77;;
39370;SDS011;25099;51.946;4.838;2022-11-21T08:01:49;23.00;;;14.52;;
39370;SDS011;25099;51.946;4.838;2022-11-21T08:04:16;25.02;;;15.70;;
39370;SDS011;25099;51.946;4.838;2022-11-21T08:06:41;25.80;;;15.40;;
39370;SDS011;25099;51.946;4.838;2022-11-21T08:09:07;22.63;;;14.50;;
39370;SDS011;25099;51.946;4.838;2022-11-21T08:11:34;23.40;;;16.38;;
39370;SDS011;25099;51.946;4.838;2022-11-21T08:14:00;26.10;;;14.93;;
39370;SDS011;25099;51.946;4.838;2022-11-21T08:16:26;25.65;;;14.88;;
39370;SDS011;25099;51.946;4.838;2022-11-21T08:18:53;23.60;;;16.17;;
39370;SDS011;25099;51.946;4.838;2022-11-21T08:21:19;27.55;;;16.27;;
39370;SDS011;25099;51.946;4.838;2022-11-21T08:23:44;24.77;;;16.48;;
39370;SDS011;25099;51.946;4.838;2022-11-21T08:26:10;28.08;;;16.40;;
39370;SDS011;25099;51.946;4.838;2022-11-21T08:28:35;30.80;;;16.52;;
39370;SDS011;25099;51.946;4.838;2022-11-21T08:31:04;25.80;;;15.60;;
39370;SDS011;25099;51.946;4.838;2022-11-21T08:33:31;24.40;;;16.48;;
39370;SDS011;25099;51.946;4.838;2022-11-21T08:35:56;29.20;;;17.23;;
39370;SDS011;25099;51.946;4.838;2022-11-21T08:38:22;28.67;;;15.98;;
39370;SDS011;25099;51.946;4.838;2022-11-21T08:40:48;38.22;;;21.30;;
39370;SDS011;25099;51.946;4.838;2022-11-21T08:43:40;45.78;;;21.42;;
39370;SDS011;25099;51.946;4.838;2022-11-21T08:46:05;28.90;;;14.90;;
39370;SDS011;25099;51.946;4.838;2022-11-21T08:48:31;23.98;;;14.48;;
39370;SDS011;25099;51.946;4.838;2022-11-21T08:50:56;23.65;;;15.52;;
39370;SDS011;25099;51.946;4.838;2022-11-21T08:53:22;24.05;;;14.90;;
39370;SDS011;25099;51.946;4.838;2022-11-21T08:55:48;22.90;;;13.90;;
39370;SDS011;25099;51.946;4.838;2022-11-21T08:58:13;29.50;;;15.70;;
39370;SDS011;25099;51.946;4.838;2022-11-21T09:00:39;24.70;;;16.25;;
39370;SDS011;25099;51.946;4.838;2022-11-21T09:03:04;23.60;;;15.07;;
39370;SDS011;25099;51.946;4.838;2022-11-21T09:05:31;27.30;;;15.85;;
39370;SDS011;25099;51.946;4.838;2022-11-21T09:07:57;34.00;;;15.88;;
39370;SDS011;25099;51.946;4.838;2022-11-21T09:10:23;28.90;;;16.15;;
39370;SDS011;25099;51.946;4.838;2022-11-21T09:12:53;26.90;;;16.08;;
39370;SDS011;25099;51.946;4.838;2022-11-21T09:15:22;24.83;;;15.25;;
39370;SDS011;25099;51.946;4.838;2022-11-21T09:18:06;25.33;;;13.30;;
39370;SDS011;25099;51.946;4.838;2022-11-21T09:20:35;23.33;;;13.60;;
39370;SDS011;25099;51.946;4.838;2022-11-21T09:23:07;20.63;;;11.23;;
39370;SDS011;25099;51.946;4.838;2022-11-21T09:25:37;17.45;;;11.38;;
39370;SDS011;25099;51.946;4.838;2022-11-21T09:28:03;18.27;;;10.60;;
39370;SDS011;25099;51.946;4.838;2022-11-21T09:30:30;16.15;;;9.98;;
39370;SDS011;25099;51.946;4.838;2022-11-21T09:33:00;18.80;;;10.45;;
39370;SDS011;25099;51.946;4.838;2022-11-21T09:35:29;20.65;;;10.48;;
39370;SDS011;25099;51.946;4.838;2022-11-21T09:37:55;20.65;;;10.65;;
39370;SDS011;25099;51.946;4.838;2022-11-21T09:40:21;26.33;;;9.32;;
39370;SDS011;25099;51.946;4.838;2022-11-21T09:43:12;15.23;;;9.68;;
39370;SDS011;25099;51.946;4.838;2022-11-21T09:46:02;18.00;;;9.10;;
39370;SDS011;25099;51.946;4.838;2022-11-21T09:48:47;25.92;;;9.38;;
39370;SDS011;25099;51.946;4.838;2022-11-21T09:51:20;21.08;;;9.65;;
39370;SDS011;25099;51.946;4.838;2022-11-21T09:53:50;20.60;;;9.32;;
39370;SDS011;25099;51.946;4.838;2022-11-21T09:56:22;15.15;;;8.48;;
39370;SDS011;25099;51.946;4.838;2022-11-21T09:58:50;26.58;;;9.60;;
39370;SDS011;25099;51.946;4.838;2022-11-21T10:01:39;24.77;;;8.85;;
39370;SDS011;25099;51.946;4.838;2022-11-21T10:04:04;27.65;;;9.90;;
39370;SDS011;25099;51.946;4.838;2022-11-21T10:06:31;20.27;;;9.55;;
39370;SDS011;25099;51.946;4.838;2022-11-21T10:14:42;19.23;;;9.35;;
39370;SDS011;25099;51.946;4.838;2022-11-21T10:17:15;19.00;;;9.48;;
39370;SDS011;25099;51.946;4.838;2022-11-21T10:25:36;18.40;;;8.77;;
39370;SDS011;25099;51.946;4.838;2022-11-21T10:30:44;15.82;;;9.75;;
39370;SDS011;25099;51.946;4.838;2022-11-21T10:33:14;16.45;;;8.40;;
39370;SDS011;25099;51.946;4.838;2022-11-21T10:35:50;23.52;;;9.18;;
39370;SDS011;25099;51.946;4.838;2022-11-21T10:40:50;11.82;;;7.43;;
39370;SDS011;25099;51.946;4.838;2022-11-21T10:43:38;19.15;;;8.20;;
39370;SDS011;25099;51.946;4.838;2022-11-21T10:46:37;15.52;;;8.60;;
39370;SDS011;25099;51.946;4.838;2022-11-21T10:49:03;11.45;;;7.43;;
39370;SDS011;25099;51.946;4.838;2022-11-21T10:54:11;11.15;;;7.63;;
39370;SDS011;25099;51.946;4.838;2022-11-21T10:56:58;20.42;;;7.40;;
39370;SDS011;25099;51.946;4.838;2022-11-21T10:59:38;18.75;;;7.25;;
39370;SDS011;25099;51.946;4.838;2022-11-21T11:04:38;15.80;;;7.32;;
39370;SDS011;25099;51.946;4.838;2022-11-21T11:09:50;13.68;;;6.43;;
39370;SDS011;25099;51.946;4.838;2022-11-21T11:12:26;11.25;;;6.82;;
39370;SDS011;25099;51.946;4.838;2022-11-21T11:15:19;16.38;;;6.10;;
39370;SDS011;25099;51.946;4.838;2022-11-21T11:17:57;13.52;;;6.07;;
39370;SDS011;25099;51.946;4.838;2022-11-21T11:20:39;12.05;;;6.22;;
39370;SDS011;25099;51.946;4.838;2022-11-21T11:23:39;15.10;;;6.53;;
39370;SDS011;25099;51.946;4.838;2022-11-21T11:25:58;11.20;;;5.63;;
39370;SDS011;25099;51.946;4.838;2022-11-21T11:28:24;12.73;;;4.90;;
39370;SDS011;25099;51.946;4.838;2022-11-21T11:30:57;8.70;;;4.82;;
39370;SDS011;25099;51.946;4.838;2022-11-21T11:33:29;7.55;;;3.90;;
39370;SDS011;25099;51.946;4.838;2022-11-21T11:35:55;7.38;;;3.58;;
39370;SDS011;25099;51.946;4.838;2022-11-21T11:38:35;7.85;;;4.07;;
39370;SDS011;25099;51.946;4.838;2022-11-21T11:41:02;7.90;;;3.53;;
39370;SDS011;25099;51.946;4.838;2022-11-21T11:52:16;10.27;;;4.07;;
39370;SDS011;25099;51.946;4.838;2022-11-21T11:54:47;11.87;;;3.33;;
39370;SDS011;25099;51.946;4.838;2022-11-21T11:57:20;7.03;;;3.42;;
39370;SDS011;25099;51.946;4.838;2022-11-21T11:59:48;8.23;;;2.92;;
39370;SDS011;25099;51.946;4.838;2022-11-21T12:02:27;6.80;;;2.63;;
39370;SDS011;25099;51.946;4.838;2022-11-21T12:05:09;7.20;;;3.10;;
39370;SDS011;25099;51.946;4.838;2022-11-21T12:07:44;6.72;;;2.88;;
39370;SDS011;25099;51.946;4.838;2022-11-21T12:13:08;10.15;;;3.75;;
39370;SDS011;25099;51.946;4.838;2022-11-21T12:15:39;7.05;;;2.95;;
39370;SDS011;25099;51.946;4.838;2022-11-21T12:23:48;6.10;;;2.70;;
39370;SDS011;25099;51.946;4.838;2022-11-21T12:26:39;10.88;;;3.50;;
39370;SDS011;25099;51.946;4.838;2022-11-21T12:32:09;9.20;;;3.08;;
39370;SDS011;25099;51.946;4.838;2022-11-21T12:42:55;4.07;;;2.40;;
39370;SDS011;25099;51.946;4.838;2022-11-21T12:57:17;5.18;;;3.00;;
39370;SDS011;25099;51.946;4.838;2022-11-21T13:05:41;6.53;;;3.33;;
39370;SDS011;25099;51.946;4.838;2022-11-21T13:08:20;8.13;;;3.22;;
39370;SDS011;25099;51.946;4.838;2022-11-21T13:10:49;8.02;;;2.80;;
39370;SDS011;25099;51.946;4.838;2022-11-21T13:13:42;7.80;;;2.88;;
39370;SDS011;25099;51.946;4.838;2022-11-21T13:16:10;7.45;;;2.60;;
39370;SDS011;25099;51.946;4.838;2022-11-21T13:19:00;8.57;;;2.50;;
39370;SDS011;25099;51.946;4.838;2022-11-21T13:21:47;9.43;;;2.33;;
39370;SDS011;25099;51.946;4.838;2022-11-21T13:27:30;8.48;;;3.13;;
39370;SDS011;25099;51.946;4.838;2022-11-21T13:32:43;10.65;;;2.95;;
39370;SDS011;25099;51.946;4.838;2022-11-21T14:05:12;12.88;;;2.85;;
39370;SDS011;25099;51.946;4.838;2022-11-21T14:08:11;8.35;;;2.95;;
39370;SDS011;25099;51.946;4.838;2022-11-21T14:10:43;13.68;;;2.92;;
39370;SDS011;25099;51.946;4.838;2022-11-21T14:13:44;6.05;;;2.55;;
39370;SDS011;25099;51.946;4.838;2022-11-21T14:18:51;15.75;;;6.05;;
39370;SDS011;25099;51.946;4.838;2022-11-21T14:21:38;9.60;;;6.18;;
39370;SDS011;25099;51.946;4.838;2022-11-21T14:24:10;15.63;;;4.60;;
39370;SDS011;25099;51.946;4.838;2022-11-21T14:26:48;11.35;;;4.32;;
39370;SDS011;25099;51.946;4.838;2022-11-21T14:29:26;9.30;;;3.47;;
39370;SDS011;25099;51.946;4.838;2022-11-21T14:32:01;7.50;;;3.50;;
39370;SDS011;25099;51.946;4.838;2022-11-21T14:34:28;10.63;;;3.10;;
39370;SDS011;25099;51.946;4.838;2022-11-21T14:36:56;7.93;;;3.22;;
39370;SDS011;25099;51.946;4.838;2022-11-21T14:39:25;7.60;;;3.03;;
39370;SDS011;25099;51.946;4.838;2022-11-21T14:41:55;7.03;;;2.75;;
39370;SDS011;25099;51.946;4.838;2022-11-21T14:44:24;9.02;;;3.38;;
39370;SDS011;25099;51.946;4.838;2022-11-21T14:46:50;6.72;;;2.85;;
39370;SDS011;25099;51.946;4.838;2022-11-21T14:49:47;8.15;;;3.30;;
39370;SDS011;25099;51.946;4.838;2022-11-21T14:52:24;6.75;;;2.67;;
39370;SDS011;25099;51.946;4.838;2022-11-21T14:54:56;15.52;;;3.33;;
39370;SDS011;25099;51.946;4.838;2022-11-21T14:59:51;10.00;;;3.08;;
39370;SDS011;25099;51.946;4.838;2022-11-21T15:02:19;7.95;;;2.50;;
39370;SDS011;25099;51.946;4.838;2022-11-21T15:04:46;7.80;;;3.22;;
39370;SDS011;25099;51.946;4.838;2022-11-21T15:07:26;17.02;;;3.15;;
39370;SDS011;25099;51.946;4.838;2022-11-21T15:09:53;9.02;;;2.33;;
39370;SDS011;25099;51.946;4.838;2022-11-21T15:12:25;10.73;;;2.70;;
39370;SDS011;25099;51.946;4.838;2022-11-21T15:18:25;9.32;;;2.83;;
39370;SDS011;25099;51.946;4.838;2022-11-21T15:20:54;4.95;;;2.75;;
39370;SDS011;25099;51.946;4.838;2022-11-21T15:23:24;9.73;;;2.95;;
39370;SDS011;25099;51.946;4.838;2022-11-21T15:26:00;15.98;;;2.90;;
39370;SDS011;25099;51.946;4.838;2022-11-21T15:28:27;6.82;;;2.83;;
39370;SDS011;25099;51.946;4.838;2022-11-21T15:36:27;12.82;;;2.60;;
39370;SDS011;25099;51.946;4.838;2022-11-21T15:39:03;5.35;;;2.40;;
39370;SDS011;25099;51.946;4.838;2022-11-21T15:41:31;11.43;;;2.75;;
39370;SDS011;25099;51.946;4.838;2022-11-21T15:46:27;13.38;;;2.85;;
39370;SDS011;25099;51.946;4.838;2022-11-21T15:49:02;5.55;;;2.70;;
39370;SDS011;25099;51.946;4.838;2022-11-21T15:51:33;7.65;;;2.70;;
39370;SDS011;25099;51.946;4.838;2022-11-21T15:54:10;8.75;;;3.42;;
39370;SDS011;25099;51.946;4.838;2022-11-21T15:56:38;7.13;;;3.33;;
39370;SDS011;25099;51.946;4.838;2022-11-21T15:59:04;12.70;;;3.22;;
39370;SDS011;25099;51.946;4.838;2022-11-21T16:01:33;9.38;;;3.90;;
39370;SDS011;25099;51.946;4.838;2022-11-21T16:03:59;8.07;;;2.92;;
39370;SDS011;25099;51.946;4.838;2022-11-21T16:06:26;11.50;;;3.35;;
39370;SDS011;25099;51.946;4.838;2022-11-21T16:08:52;7.18;;;2.97;;
39370;SDS011;25099;51.946;4.838;2022-11-21T16:13:58;9.10;;;3.45;;
39370;SDS011;25099;51.946;4.838;2022-11-21T16:16:26;12.18;;;4.07;;
39370;SDS011;25099;51.946;4.838;2022-11-21T16:18:54;10.27;;;3.40;;
39370;SDS011;25099;51.946;4.838;2022-11-21T16:21:23;5.78;;;3.50;;
39370;SDS011;25099;51.946;4.838;2022-11-21T16:23:52;5.72;;;2.95;;
39370;SDS011;25099;51.946;4.838;2022-11-21T16:26:18;7.20;;;3.60;;
39370;SDS011;25099;51.946;4.838;2022-11-21T16:28:44;5.45;;;3.33;;
39370;SDS011;25099;51.946;4.838;2022-11-21T16:31:17;11.68;;;4.15;;
39370;SDS011;25099;51.946;4.838;2022-11-21T16:33:43;8.88;;;3.80;;
39370;SDS011;25099;51.946;4.838;2022-11-21T16:36:09;9.35;;;3.85;;
39370;SDS011;25099;51.946;4.838;2022-11-21T16:38:34;8.35;;;4.03;;
39370;SDS011;25099;51.946;4.838;2022-11-21T16:41:00;7.85;;;4.10;;
39370;SDS011;25099;51.946;4.838;2022-11-21T16:43:30;11.20;;;4.28;;
39370;SDS011;25099;51.946;4.838;2022-11-21T16:46:04;10.73;;;4.10;;
39370;SDS011;25099;51.946;4.838;2022-11-21T16:48:31;14.98;;;5.07;;
39370;SDS011;25099;51.946;4.838;2022-11-21T16:51:17;7.80;;;3.17;;